Antioch, Tennessee
Current Conditions -  °F | °C
As of 4:53 AM on Wednesday 22 Oct 2014 (Local Time) from KBNA Reporting Station
Clear Clear  
Wind Chill: 42°   Ceiling: Unl
Heat Index: 45°   Visibility: 10mi
Dew Point: 41°   Wind: 6mph
Humidity: 86%   Direction: 10°N
Pressure: 30.18"   Gusts: NA
Location:  36.06°N, 86.67°W
Report Text: KBNA 220953Z 01005KT 10SM CLR 07/05 A3018 RMK AO2 SLP219 T00720050
Loading
Personal Weather Stations






























Interactive Weather Map
Tropical Storm Tracking
New forecast layout! Learn more

10-Day Weather Forecast

Advertisements
Track Severe Weather on mobile